Terminal Aerodrome Forecast
Issued by NWS

Home | Current Version | Previous Version | Text Only | Print | Product List | Glossary On
Versions: 1 2 3 4 5 6 7 8 9 10 11 12 13 14 15 16 17 18
000
FTUS45 KABQ 300527
TAFLVS
TAF
KLVS 300527Z 3006/0106 21006KT P6SM BKN100
     FM300700 05006KT P6SM BKN025
     FM301500 14007KT P6SM BKN050
     FM302100 14011KT P6SM VCSH BKN060
     FM010100 07014G22KT P6SM OVC015
     FM010300 04015G25KT 4SM -RA OVC006=

USA.gov is the U.S. government's official web portal to all federal, state and local government web resources and services.